KTSP/TSP METAR and TAF weather

Enter ICAO airport designator
Station Type Date Time Source
KTSP METAR 2019/06/17 14:35 UTC NOAA

KTSP 171435Z AUTO 00000KT 10SM CLR 17/08 A2997 RMK AO2


Station Type Date Time Source
KTSP Decoded METAR 2019/06/17 14:35 UTC NOAA

Station name not available
Jun 17, 2019 - 10:35 AM EDT / 2019.06.17 1435 UTC
Wind: Calm:0
Visibility: 10 mile(s):0
Sky conditions: clear
Temperature: 62 F (17 C)
Dew Point: 46 F (8 C)
Relative Humidity: 55%
Pressure (altimeter): 29.97 in. Hg (1014 hPa)
ob: KTSP 171435Z AUTO 00000KT 10SM CLR 17/08 A2997 RMK AO2
cycle: 14

Station Type Date Time Source
KTSP TAF UTC NOAA

Error!

Example: see airport list